createdAt,value
2022-11-05T00:00:58.095Z,10.37
2022-11-05T00:01:58.070Z,10.42
2022-11-05T00:02:57.845Z,10.45
2022-11-05T00:03:57.783Z,10.41
2022-11-05T00:04:57.741Z,10.31
2022-11-05T00:05:58.105Z,10.3
2022-11-05T00:06:57.764Z,10.29
2022-11-05T00:07:57.767Z,10.3
2022-11-05T00:08:57.757Z,10.32
2022-11-05T00:10:00.783Z,10.33
2022-11-05T00:10:58.014Z,10.34
2022-11-05T00:11:57.727Z,10.38
2022-11-05T00:12:57.668Z,10.47
2022-11-05T00:13:57.660Z,10.53
2022-11-05T00:14:57.757Z,10.55
2022-11-05T00:15:58.019Z,10.53
2022-11-05T00:16:58.089Z,10.51
2022-11-05T00:17:58.103Z,10.51
2022-11-05T00:18:57.737Z,10.49
2022-11-05T00:19:57.808Z,10.48
2022-11-05T00:21:03.787Z,10.51
2022-11-05T00:21:57.731Z,10.5
2022-11-05T00:22:57.798Z,10.44
2022-11-05T00:23:57.857Z,10.42
2022-11-05T00:24:57.873Z,10.45
2022-11-05T00:25:58.025Z,10.47
2022-11-05T00:26:57.767Z,10.49
2022-11-05T00:27:57.669Z,10.44
2022-11-05T00:28:57.668Z,10.44
2022-11-05T00:29:57.829Z,10.44
2022-11-05T00:30:58.093Z,10.46
2022-11-05T00:32:03.713Z,10.47
2022-11-05T00:32:57.875Z,10.43
2022-11-05T00:33:57.763Z,10.46
2022-11-05T00:34:57.797Z,10.43
2022-11-05T00:35:58.016Z,10.41
2022-11-05T00:36:57.726Z,10.44
2022-11-05T00:37:57.674Z,10.44
2022-11-05T00:38:57.664Z,10.43
2022-11-05T00:39:57.669Z,10.49
2022-11-05T00:40:58.098Z,10.46
2022-11-05T00:41:57.762Z,10.46
2022-11-05T00:43:00.667Z,10.47
2022-11-05T00:43:57.860Z,10.52
2022-11-05T00:44:57.813Z,10.55
2022-11-05T00:45:58.092Z,10.52
2022-11-05T00:46:59.969Z,10.57
2022-11-05T00:47:57.822Z,10.63
2022-11-05T00:48:57.662Z,10.68
2022-11-05T00:49:57.647Z,10.73
2022-11-05T00:50:58.141Z,10.74
2022-11-05T00:51:57.817Z,10.77
2022-11-05T00:52:58.091Z,10.8
2022-11-05T00:54:00.657Z,10.85
2022-11-05T00:54:57.781Z,10.82
2022-11-05T00:55:58.312Z,10.84
2022-11-05T00:57:03.447Z,10.91
2022-11-05T00:57:57.666Z,10.88
2022-11-05T00:58:57.663Z,10.83
2022-11-05T00:59:57.683Z,10.83
2022-11-05T01:00:58.101Z,10.85
2022-11-05T01:01:58.232Z,10.9
2022-11-05T01:02:57.882Z,10.91
2022-11-05T01:03:57.784Z,10.84
2022-11-05T01:05:00.721Z,10.81
2022-11-05T01:05:58.030Z,10.82
2022-11-05T01:06:57.867Z,10.85
2022-11-05T01:07:57.827Z,10.85
2022-11-05T01:08:57.776Z,10.88
2022-11-05T01:09:57.856Z,10.89
2022-11-05T01:10:58.016Z,10.92
2022-11-05T01:11:57.676Z,10.88
2022-11-05T01:12:57.779Z,10.87
2022-11-05T01:13:57.749Z,10.94
2022-11-05T01:14:57.799Z,10.95
2022-11-05T01:16:03.678Z,10.94
2022-11-05T01:16:58.026Z,10.91
2022-11-05T01:17:57.853Z,10.87
2022-11-05T01:18:57.841Z,10.87
2022-11-05T01:19:57.785Z,10.91
2022-11-05T01:20:58.018Z,10.89
2022-11-05T01:21:57.645Z,10.88
2022-11-05T01:22:57.651Z,10.86
2022-11-05T01:23:57.660Z,10.79
2022-11-05T01:24:57.751Z,10.8
2022-11-05T01:25:57.757Z,10.77
2022-11-05T01:27:00.772Z,10.77
2022-11-05T01:27:57.797Z,10.76
2022-11-05T01:28:57.873Z,10.74
2022-11-05T01:29:57.844Z,10.72
2022-11-05T01:30:58.025Z,10.71
2022-11-05T01:31:58.028Z,10.71
2022-11-05T01:32:57.654Z,10.73
2022-11-05T01:33:57.779Z,10.71
2022-11-05T01:34:57.741Z,10.65
2022-11-05T01:35:57.791Z,10.65
2022-11-05T01:36:57.875Z,10.72
2022-11-05T01:38:00.732Z,10.72
2022-11-05T01:38:57.752Z,10.71
2022-11-05T01:39:57.684Z,10.73
2022-11-05T01:40:58.091Z,10.76
2022-11-05T01:41:57.802Z,10.72
2022-11-05T01:42:57.667Z,10.72
2022-11-05T01:43:57.653Z,10.75
2022-11-05T01:44:57.640Z,10.81
2022-11-05T01:45:58.088Z,10.81
2022-11-05T01:46:58.016Z,10.79
2022-11-05T01:47:57.711Z,10.76
2022-11-05T01:49:03.276Z,10.8
2022-11-05T01:49:57.758Z,10.8
2022-11-05T01:50:58.094Z,10.81
2022-11-05T01:51:57.745Z,10.8
2022-11-05T01:52:57.667Z,10.77
2022-11-05T01:53:57.685Z,10.73
2022-11-05T01:54:57.797Z,10.71
2022-11-05T01:55:58.221Z,10.69
2022-11-05T01:56:57.840Z,10.65
2022-11-05T01:57:57.788Z,10.63
2022-11-05T01:58:57.723Z,10.66
2022-11-05T02:00:00.787Z,10.7
2022-11-05T02:00:58.023Z,10.73
2022-11-05T02:01:58.155Z,10.7
2022-11-05T02:02:57.828Z,10.71
2022-11-05T02:03:57.753Z,10.72
2022-11-05T02:04:57.663Z,10.77
2022-11-05T02:05:58.063Z,10.77
2022-11-05T02:06:57.644Z,10.75
2022-11-05T02:07:57.666Z,10.73
2022-11-05T02:08:57.646Z,10.7
2022-11-05T02:09:57.666Z,10.69
2022-11-05T02:11:03.761Z,10.66
2022-11-05T02:11:57.830Z,10.6
2022-11-05T02:12:57.701Z,10.56
2022-11-05T02:13:57.816Z,10.56
2022-11-05T02:14:57.828Z,10.55
2022-11-05T02:15:58.139Z,10.54
2022-11-05T02:16:58.024Z,10.49
2022-11-05T02:17:57.681Z,10.49
2022-11-05T02:18:57.651Z,10.45
2022-11-05T02:19:57.643Z,10.46
2022-11-05T02:20:58.216Z,10.48
2022-11-05T02:22:00.787Z,10.48
2022-11-05T02:22:57.865Z,10.51
2022-11-05T02:23:57.776Z,10.47
2022-11-05T02:24:57.796Z,10.46
2022-11-05T02:25:58.013Z,10.42
2022-11-05T02:26:57.739Z,10.41
2022-11-05T02:27:57.819Z,10.41
2022-11-05T02:28:57.662Z,10.38
2022-11-05T02:29:57.670Z,10.4
2022-11-05T02:30:57.800Z,10.44
2022-11-05T02:31:58.070Z,10.46
2022-11-05T02:33:00.661Z,10.51
2022-11-05T02:33:57.715Z,10.49
2022-11-05T02:34:57.727Z,10.52
2022-11-05T02:35:58.091Z,10.54
2022-11-05T02:36:57.746Z,10.53
2022-11-05T02:37:57.751Z,10.52
2022-11-05T02:38:57.772Z,10.57
2022-11-05T02:39:57.671Z,10.59
2022-11-05T02:40:58.130Z,10.57
2022-11-05T02:42:03.497Z,10.6
2022-11-05T02:42:57.770Z,10.63
2022-11-05T02:44:00.815Z,10.66
2022-11-05T02:44:57.774Z,10.66
2022-11-05T02:45:58.094Z,10.7
2022-11-05T02:46:58.030Z,10.6
2022-11-05T02:47:57.813Z,10.58
2022-11-05T02:48:57.728Z,10.47
2022-11-05T02:49:57.645Z,10.47
2022-11-05T02:50:58.090Z,10.5
2022-11-05T02:51:57.818Z,10.53
2022-11-05T02:52:57.648Z,10.55
2022-11-05T02:53:57.667Z,10.61
2022-11-05T02:55:00.806Z,10.6
2022-11-05T02:55:58.015Z,10.58
2022-11-05T02:56:57.853Z,10.58
2022-11-05T02:57:57.866Z,10.56
2022-11-05T02:58:57.844Z,10.56
2022-11-05T02:59:57.744Z,10.63
2022-11-05T03:00:58.019Z,10.7
2022-11-05T03:01:58.039Z,10.72
2022-11-05T03:02:57.906Z,10.69
2022-11-05T03:03:57.859Z,10.66
2022-11-05T03:04:57.854Z,10.7
2022-11-05T03:06:03.685Z,10.68
2022-11-05T03:06:57.763Z,10.7
2022-11-05T03:07:57.795Z,10.64
2022-11-05T03:08:57.843Z,10.68
2022-11-05T03:09:57.808Z,10.71
2022-11-05T03:10:58.027Z,10.73
2022-11-05T03:11:57.748Z,10.75
2022-11-05T03:12:57.681Z,10.78
2022-11-05T03:13:57.763Z,10.78
2022-11-05T03:14:57.832Z,10.76
2022-11-05T03:15:58.098Z,10.77
2022-11-05T03:17:00.780Z,10.82
2022-11-05T03:17:57.877Z,10.83
2022-11-05T03:18:57.735Z,10.87
2022-11-05T03:19:57.700Z,10.82
2022-11-05T03:20:58.127Z,10.81
2022-11-05T03:21:57.757Z,10.81
2022-11-05T03:22:57.655Z,10.84
2022-11-05T03:23:57.651Z,10.82
2022-11-05T03:24:57.656Z,10.84
2022-11-05T03:25:58.091Z,10.85
2022-11-05T03:26:57.874Z,10.85
2022-11-05T03:28:00.804Z,10.82
2022-11-05T03:28:57.832Z,10.81
2022-11-05T03:29:57.735Z,10.84
2022-11-05T03:30:58.103Z,10.87
2022-11-05T03:31:57.794Z,10.87
2022-11-05T03:32:57.775Z,10.89
2022-11-05T03:33:57.639Z,10.84
2022-11-05T03:34:57.677Z,10.86
2022-11-05T03:35:58.100Z,10.85
2022-11-05T03:36:57.882Z,10.88
2022-11-05T03:37:57.745Z,10.9
2022-11-05T03:39:00.692Z,10.89
2022-11-05T03:39:57.836Z,10.87
2022-11-05T03:40:58.275Z,10.9
2022-11-05T03:41:57.709Z,10.9
2022-11-05T03:42:57.669Z,10.89
2022-11-05T03:43:57.693Z,10.86
2022-11-05T03:44:57.663Z,10.85
2022-11-05T03:45:58.095Z,10.86
2022-11-05T03:46:58.024Z,10.91
2022-11-05T03:47:57.723Z,10.99
2022-11-05T03:48:57.748Z,10.9
2022-11-05T03:50:00.775Z,10.93
2022-11-05T03:50:58.013Z,10.94
2022-11-05T03:51:57.771Z,10.95
2022-11-05T03:52:57.631Z,10.96
2022-11-05T03:53:57.640Z,10.98
2022-11-05T03:54:57.645Z,10.96
2022-11-05T03:55:59.247Z,10.97
2022-11-05T03:56:57.743Z,10.97
2022-11-05T03:57:57.750Z,10.92
2022-11-05T03:58:59.276Z,10.9
2022-11-05T03:59:57.849Z,10.93
2022-11-05T04:01:03.727Z,10.88
2022-11-05T04:01:58.119Z,10.89
2022-11-05T04:02:57.865Z,10.88
2022-11-05T04:03:57.866Z,10.92
2022-11-05T04:04:57.711Z,10.91
2022-11-05T04:05:58.204Z,10.95
2022-11-05T04:06:57.674Z,10.97
2022-11-05T04:07:57.724Z,11
2022-11-05T04:08:57.667Z,11.05
2022-11-05T04:09:57.678Z,11.1
2022-11-05T04:10:58.086Z,11.11
2022-11-05T04:12:01.017Z,11.09
2022-11-05T04:12:57.765Z,11.08
2022-11-05T04:13:57.770Z,11.08
2022-11-05T04:14:57.837Z,11.05
2022-11-05T04:15:58.066Z,11.03
2022-11-05T04:16:58.021Z,11.05
2022-11-05T04:17:57.689Z,11.04
2022-11-05T04:18:57.649Z,11.07
2022-11-05T04:19:57.805Z,11
2022-11-05T04:20:58.065Z,10.92
2022-11-05T04:21:57.794Z,10.87
2022-11-05T04:23:00.740Z,10.85
2022-11-05T04:23:57.862Z,10.86
2022-11-05T04:24:57.771Z,10.87
2022-11-05T04:25:58.128Z,10.88
2022-11-05T04:26:57.823Z,10.82
2022-11-05T04:27:57.650Z,10.77
2022-11-05T04:28:57.787Z,10.77
2022-11-05T04:29:57.644Z,10.74
2022-11-05T04:30:58.091Z,10.7
2022-11-05T04:31:58.018Z,10.7
2022-11-05T04:32:57.727Z,10.7
2022-11-05T04:34:00.679Z,10.67
2022-11-05T04:34:57.749Z,10.69
2022-11-05T04:35:58.097Z,10.7
2022-11-05T04:36:57.843Z,10.72
2022-11-05T04:37:57.813Z,10.73
2022-11-05T04:38:57.830Z,10.73
2022-11-05T04:39:57.748Z,10.72
2022-11-05T04:40:58.202Z,10.73
2022-11-05T04:41:57.737Z,10.71
2022-11-05T04:42:57.766Z,10.71
2022-11-05T04:43:57.874Z,10.73
2022-11-05T04:45:00.671Z,10.72
2022-11-05T04:45:58.015Z,10.71
2022-11-05T04:46:58.026Z,10.67
2022-11-05T04:47:57.852Z,10.67
2022-11-05T04:48:58.256Z,10.67
2022-11-05T04:49:57.840Z,10.71
2022-11-05T04:50:58.024Z,10.76
2022-11-05T04:51:57.655Z,10.76
2022-11-05T04:52:57.660Z,10.72
2022-11-05T04:53:57.652Z,10.71
2022-11-05T04:54:57.665Z,10.68
2022-11-05T04:56:00.809Z,10.76
2022-11-05T04:56:57.825Z,10.68
2022-11-05T04:57:57.665Z,10.57
2022-11-05T04:58:57.710Z,10.49
2022-11-05T04:59:57.754Z,10.44
2022-11-05T05:00:58.203Z,10.43
2022-11-05T05:01:58.103Z,10.45
2022-11-05T05:02:57.764Z,10.49
2022-11-05T05:03:57.753Z,10.49
2022-11-05T05:04:57.766Z,10.44
2022-11-05T05:06:03.374Z,10.44
2022-11-05T05:07:00.819Z,10.4
2022-11-05T05:07:57.816Z,10.42
2022-11-05T05:08:57.757Z,10.39
2022-11-05T05:09:57.656Z,10.41
2022-11-05T05:10:58.290Z,10.37
2022-11-05T05:11:57.818Z,10.33
2022-11-05T05:12:57.654Z,10.29
2022-11-05T05:13:57.725Z,10.27
2022-11-05T05:14:57.737Z,10.26
2022-11-05T05:15:58.019Z,10.23
2022-11-05T05:16:57.768Z,10.24
2022-11-05T05:18:00.683Z,10.24
2022-11-05T05:18:57.756Z,10.26
2022-11-05T05:19:57.789Z,10.2
2022-11-05T05:20:58.022Z,10.18
2022-11-05T05:21:57.833Z,10.2
2022-11-05T05:22:57.752Z,10.2
2022-11-05T05:23:57.767Z,10.16
2022-11-05T05:24:57.780Z,10.15
2022-11-05T05:25:57.669Z,10.15
2022-11-05T05:26:57.768Z,10.21
2022-11-05T05:27:57.839Z,10.16
2022-11-05T05:29:00.763Z,10.11
2022-11-05T05:29:57.833Z,10.07
2022-11-05T05:30:58.881Z,10.01
2022-11-05T05:31:58.025Z,9.99
2022-11-05T05:32:57.830Z,9.97
2022-11-05T05:33:57.756Z,9.94
2022-11-05T05:34:57.667Z,9.95
2022-11-05T05:35:58.093Z,9.95
2022-11-05T05:36:57.717Z,9.97
2022-11-05T05:37:57.644Z,9.98
2022-11-05T05:38:57.691Z,9.95
2022-11-05T05:40:00.697Z,9.88
2022-11-05T05:40:58.030Z,9.82
2022-11-05T05:41:57.751Z,9.78
2022-11-05T05:42:57.773Z,9.8
2022-11-05T05:43:57.786Z,9.87
2022-11-05T05:44:57.768Z,9.82
2022-11-05T05:45:58.057Z,9.86
2022-11-05T05:46:58.091Z,9.86
2022-11-05T05:47:57.859Z,9.88
2022-11-05T05:48:57.808Z,9.88
2022-11-05T05:49:57.844Z,9.94
2022-11-05T05:51:03.747Z,9.97
2022-11-05T05:51:57.750Z,10.03
2022-11-05T05:52:57.660Z,10.08
2022-11-05T05:53:57.758Z,10.02
2022-11-05T05:54:57.779Z,10.07
2022-11-05T05:55:58.019Z,10.19
2022-11-05T05:56:57.658Z,10.2
2022-11-05T05:57:57.657Z,10.14
2022-11-05T05:58:57.669Z,10.24
2022-11-05T05:59:57.663Z,10.22
2022-11-05T06:00:57.843Z,10.21
2022-11-05T06:02:03.870Z,10.23
2022-11-05T06:02:57.891Z,10.26
2022-11-05T06:03:57.756Z,10.28
2022-11-05T06:04:57.736Z,10.33
2022-11-05T06:05:58.097Z,10.34
2022-11-05T06:06:57.845Z,10.32
2022-11-05T06:07:57.674Z,10.32
2022-11-05T06:08:57.790Z,10.36
2022-11-05T06:09:57.749Z,10.37
2022-11-05T06:10:58.144Z,10.33
2022-11-05T06:11:57.728Z,10.36
2022-11-05T06:13:00.818Z,10.36
2022-11-05T06:13:57.793Z,10.34
2022-11-05T06:14:57.691Z,10.44
2022-11-05T06:15:58.144Z,10.44
2022-11-05T06:16:58.015Z,10.44
2022-11-05T06:17:57.846Z,10.47
2022-11-05T06:18:57.662Z,10.5
2022-11-05T06:19:57.801Z,10.52
2022-11-05T06:20:58.056Z,10.6
2022-11-05T06:21:57.760Z,10.6
2022-11-05T06:22:57.720Z,10.61
2022-11-05T06:24:00.816Z,10.68
2022-11-05T06:24:57.855Z,10.69
2022-11-05T06:25:57.664Z,10.64
2022-11-05T06:26:57.644Z,10.65
2022-11-05T06:27:57.661Z,10.64
2022-11-05T06:28:57.793Z,10.7
2022-11-05T06:29:57.642Z,10.7
2022-11-05T06:30:58.095Z,10.79
2022-11-05T06:31:57.673Z,10.81
2022-11-05T06:32:57.660Z,10.82
2022-11-05T06:33:57.751Z,10.79
2022-11-05T06:35:00.665Z,10.8
2022-11-05T06:35:58.022Z,10.86
2022-11-05T06:36:57.821Z,10.91
2022-11-05T06:37:57.762Z,10.87
2022-11-05T06:38:57.878Z,10.84
2022-11-05T06:39:57.667Z,10.79
2022-11-05T06:40:58.068Z,10.79
2022-11-05T06:42:17.192Z,10.82
2022-11-05T06:42:57.735Z,10.79
2022-11-05T06:43:57.659Z,10.8
2022-11-05T06:44:57.765Z,10.83
2022-11-05T06:46:03.769Z,10.83
2022-11-05T06:46:58.070Z,10.85
2022-11-05T06:47:57.734Z,10.87
2022-11-05T06:48:57.673Z,10.89
2022-11-05T06:49:57.764Z,10.98
2022-11-05T06:50:58.046Z,10.99
2022-11-05T06:51:57.650Z,10.95
2022-11-05T06:52:57.795Z,10.92
2022-11-05T06:53:57.702Z,10.89
2022-11-05T06:54:57.655Z,10.89
2022-11-05T06:55:58.141Z,10.89
2022-11-05T06:57:00.677Z,10.94
2022-11-05T06:57:57.771Z,10.92
2022-11-05T06:58:57.701Z,10.96
2022-11-05T07:00:01.491Z,10.93
2022-11-05T07:00:57.894Z,10.89
2022-11-05T07:01:57.823Z,10.85
2022-11-05T07:02:57.771Z,10.82
2022-11-05T07:03:57.774Z,10.69
2022-11-05T07:04:57.837Z,10.6
2022-11-05T07:05:58.354Z,10.54
2022-11-05T07:06:57.837Z,10.48
2022-11-05T07:08:00.704Z,10.38
2022-11-05T07:08:57.732Z,10.36
2022-11-05T07:09:57.660Z,10.29
2022-11-05T07:10:57.697Z,10.25
2022-11-05T07:11:57.638Z,10.2
2022-11-05T07:12:57.766Z,10.15
2022-11-05T07:13:58.196Z,10.13
2022-11-05T07:14:57.667Z,10.12
2022-11-05T07:15:58.139Z,10.12
2022-11-05T07:16:57.735Z,10.06
2022-11-05T07:17:57.772Z,10.09
2022-11-05T07:19:00.813Z,9.99
2022-11-05T07:19:57.843Z,9.93
2022-11-05T07:20:58.107Z,9.89
2022-11-05T07:21:57.766Z,9.85
2022-11-05T07:22:57.735Z,9.78
2022-11-05T07:23:57.665Z,9.77
2022-11-05T07:24:58.041Z,9.78
2022-11-05T07:25:57.760Z,9.87
2022-11-05T07:26:57.807Z,9.82
2022-11-05T07:27:57.858Z,9.83
2022-11-05T07:28:58.666Z,9.88
2022-11-05T07:30:03.954Z,9.88
2022-11-05T07:30:57.884Z,9.88
2022-11-05T07:31:57.754Z,9.91
2022-11-05T07:32:57.768Z,9.91
2022-11-05T07:33:57.670Z,9.9
2022-11-05T07:34:58.109Z,9.83
2022-11-05T07:35:57.660Z,9.86
2022-11-05T07:36:57.672Z,9.86
2022-11-05T07:37:57.729Z,9.84
2022-11-05T07:39:00.346Z,9.88
2022-11-05T07:39:58.145Z,9.95
2022-11-05T07:41:00.791Z,10
2022-11-05T07:41:57.749Z,10.07
2022-11-05T07:42:57.738Z,10.26
2022-11-05T07:43:58.112Z,10.4
2022-11-05T07:44:58.029Z,10.49
2022-11-05T07:45:57.738Z,10.75
2022-11-05T07:46:57.682Z,10.94
2022-11-05T07:47:57.780Z,11.13
2022-11-05T07:48:57.729Z,11.26
2022-11-05T07:49:58.157Z,11.34
2022-11-05T07:50:57.864Z,11.42
2022-11-05T07:52:00.771Z,11.46
2022-11-05T07:52:57.860Z,11.48
2022-11-05T07:53:57.829Z,11.45
2022-11-05T07:54:58.223Z,11.42
2022-11-05T07:55:57.730Z,11.41
2022-11-05T07:56:57.664Z,11.41
2022-11-05T07:57:57.652Z,11.43
2022-11-05T07:58:57.670Z,11.44
2022-11-05T07:59:58.103Z,11.46
2022-11-05T08:00:57.954Z,11.5
2022-11-05T08:01:57.893Z,11.54
2022-11-05T08:03:07.290Z,11.56
2022-11-05T08:03:57.812Z,11.5
2022-11-05T08:04:57.764Z,11.5
2022-11-05T08:05:57.773Z,11.55
2022-11-05T08:06:57.665Z,11.62
2022-11-05T08:07:57.887Z,11.66
2022-11-05T08:08:57.755Z,11.75
2022-11-05T08:09:58.177Z,11.78
2022-11-05T08:10:57.725Z,11.78
2022-11-05T08:12:02.638Z,11.85
2022-11-05T08:12:57.665Z,12.03
2022-11-05T08:14:00.887Z,12.16
2022-11-05T08:14:57.746Z,12.3
2022-11-05T08:15:57.663Z,12.37
2022-11-05T08:16:57.665Z,12.6
2022-11-05T08:17:57.663Z,12.74
2022-11-05T08:18:57.770Z,12.9
2022-11-05T08:19:58.036Z,13.02
2022-11-05T08:20:57.761Z,13.06
2022-11-05T08:21:57.731Z,13.08
2022-11-05T08:22:57.683Z,13.26
2022-11-05T08:23:57.801Z,13.39
2022-11-05T08:25:06.746Z,13.51
2022-11-05T08:25:57.726Z,13.63
2022-11-05T08:26:57.679Z,13.68
2022-11-05T08:27:57.734Z,13.69
2022-11-05T08:28:58.029Z,13.79
2022-11-05T08:29:58.032Z,13.86
2022-11-05T08:30:57.672Z,14.03
2022-11-05T08:31:57.661Z,14.15
2022-11-05T08:32:57.681Z,14.29
2022-11-05T08:34:02.281Z,14.47
2022-11-05T08:34:57.872Z,14.72
2022-11-05T08:36:00.766Z,14.97
2022-11-05T08:36:57.786Z,15.07
2022-11-05T08:37:57.647Z,15.25
2022-11-05T08:38:57.782Z,15.32
2022-11-05T08:39:57.776Z,15.36
2022-11-05T08:40:57.715Z,15.45
2022-11-05T08:41:57.683Z,15.31
2022-11-05T08:42:57.653Z,15.17
2022-11-05T08:43:58.144Z,15.05
2022-11-05T08:44:58.093Z,14.98
2022-11-05T08:45:57.675Z,14.83
2022-11-05T08:47:00.720Z,14.73
2022-11-05T08:47:57.738Z,14.6
2022-11-05T08:48:57.723Z,14.51
2022-11-05T08:49:58.245Z,14.46
2022-11-05T08:50:57.785Z,14.22
2022-11-05T08:51:57.653Z,14.08
2022-11-05T08:52:57.792Z,14.06
2022-11-05T08:53:57.743Z,13.95
2022-11-05T08:54:58.032Z,13.83
2022-11-05T08:55:57.754Z,13.83
2022-11-05T08:56:57.663Z,13.87
2022-11-05T08:58:00.664Z,13.87
2022-11-05T08:58:57.781Z,13.87
2022-11-05T08:59:58.108Z,13.86
2022-11-05T09:01:03.430Z,13.88
2022-11-05T09:01:57.737Z,14
2022-11-05T09:02:57.738Z,14.05
2022-11-05T09:03:57.668Z,14.21
2022-11-05T09:04:58.113Z,14.26
2022-11-05T09:05:57.844Z,14.32
2022-11-05T09:06:57.730Z,14.47
2022-11-05T09:08:00.930Z,14.5
2022-11-05T09:09:00.732Z,14.5
2022-11-05T09:09:58.084Z,14.53
2022-11-05T09:10:57.735Z,14.63
2022-11-05T09:12:11.754Z,14.73
2022-11-05T09:12:57.756Z,14.71
2022-11-05T09:14:48.577Z,14.64
2022-11-05T09:16:55.459Z,14.71
2022-11-05T09:17:55.505Z,14.64
2022-11-05T09:18:55.547Z,14.62
2022-11-05T09:19:55.796Z,14.68
2022-11-05T09:20:55.434Z,14.56
2022-11-05T09:21:58.438Z,14.54
2022-11-05T09:22:55.522Z,14.58
2022-11-05T09:23:55.437Z,14.67
2022-11-05T09:24:55.876Z,14.75
2022-11-05T09:25:55.553Z,14.84
2022-11-05T09:26:55.429Z,14.84
2022-11-05T09:27:55.493Z,14.85
2022-11-05T09:28:55.860Z,14.87
2022-11-05T09:29:55.787Z,14.77
2022-11-05T09:30:55.562Z,14.68
2022-11-05T09:31:55.561Z,14.62
2022-11-05T09:32:58.539Z,14.65
2022-11-05T09:33:55.528Z,14.64
2022-11-05T09:34:55.859Z,14.58
2022-11-05T09:35:55.584Z,14.35
2022-11-05T09:36:55.628Z,14.18
2022-11-05T09:38:00.646Z,14.04
2022-11-05T09:38:55.561Z,14.03
2022-11-05T09:39:55.869Z,14
2022-11-05T09:40:55.522Z,14.1
2022-11-05T09:41:55.382Z,14.18
2022-11-05T09:42:55.414Z,14.21
2022-11-05T09:43:58.603Z,14.22
2022-11-05T09:44:55.791Z,14.15
2022-11-05T09:45:55.472Z,14.08
2022-11-05T09:46:55.399Z,13.98
2022-11-05T09:47:55.424Z,13.85
2022-11-05T09:48:55.416Z,13.78
2022-11-05T09:49:55.801Z,13.68
2022-11-05T09:50:55.547Z,13.63
2022-11-05T09:51:55.621Z,13.64
2022-11-05T09:52:55.572Z,13.55
2022-11-05T09:53:55.405Z,13.6
2022-11-05T09:56:02.592Z,13.8
2022-11-05T09:57:02.551Z,13.9
2022-11-05T09:58:02.847Z,13.94
2022-11-05T09:59:02.848Z,13.96
2022-11-05T10:00:02.936Z,13.93
2022-11-05T10:01:05.592Z,13.91
2022-11-05T10:02:02.831Z,13.97
2022-11-05T10:03:02.645Z,14.08
2022-11-05T10:04:02.546Z,14.11
2022-11-05T10:05:09.104Z,14.15
2022-11-05T10:06:02.457Z,14.22
2022-11-05T10:07:02.468Z,14.21
2022-11-05T10:08:02.465Z,14.19
2022-11-05T10:09:02.549Z,14.31
2022-11-05T10:10:02.464Z,14.57
2022-11-05T10:11:02.597Z,14.7
2022-11-05T10:12:05.563Z,14.81
2022-11-05T10:13:02.640Z,14.87
2022-11-05T10:14:02.575Z,14.96
2022-11-05T10:15:02.985Z,14.98
2022-11-05T10:16:02.681Z,14.91
2022-11-05T10:17:02.554Z,14.81
2022-11-05T10:18:02.564Z,14.75
2022-11-05T10:19:02.478Z,14.74
2022-11-05T10:20:02.471Z,14.81
2022-11-05T10:21:02.460Z,14.88
2022-11-05T10:22:07.146Z,14.93
2022-11-05T10:23:05.645Z,14.98
2022-11-05T10:24:02.545Z,14.99
2022-11-05T10:25:02.956Z,14.95
2022-11-05T10:26:02.565Z,15
2022-11-05T10:27:02.549Z,14.98
2022-11-05T10:28:02.589Z,14.83
2022-11-05T10:29:02.547Z,14.79
2022-11-05T10:30:02.453Z,14.76
2022-11-05T10:31:02.557Z,14.75
2022-11-05T10:32:02.647Z,14.66
2022-11-05T10:33:02.573Z,14.66
2022-11-05T10:34:05.534Z,14.65
2022-11-05T10:35:02.515Z,14.67
2022-11-05T10:36:02.441Z,14.72
2022-11-05T10:37:02.453Z,14.84
2022-11-05T10:38:02.480Z,14.9
2022-11-05T10:39:02.601Z,14.96
2022-11-05T10:40:02.491Z,14.95
2022-11-05T10:41:02.473Z,14.97
2022-11-05T10:42:02.438Z,14.98
2022-11-05T10:43:02.603Z,14.93
2022-11-05T10:44:02.630Z,14.97
2022-11-05T10:45:05.691Z,15.01
2022-11-05T10:46:02.538Z,15.1
2022-11-05T10:47:02.553Z,15.1
2022-11-05T10:48:02.680Z,14.97
2022-11-05T10:49:02.548Z,14.82
2022-11-05T10:50:02.989Z,14.8
2022-11-05T10:51:02.631Z,14.86
2022-11-05T10:52:02.562Z,15.01
2022-11-05T10:54:09.266Z,15.19
2022-11-05T10:55:09.230Z,15.29
2022-11-05T10:56:09.285Z,15.33
2022-11-05T10:57:09.203Z,15.32
2022-11-05T10:58:09.175Z,15.41
2022-11-05T10:59:12.434Z,15.52
2022-11-05T11:00:09.606Z,15.66
2022-11-05T11:01:09.358Z,15.73
2022-11-05T11:02:09.299Z,15.61
2022-11-05T11:03:09.619Z,15.48
2022-11-05T11:04:09.416Z,15.36
2022-11-05T11:05:09.285Z,15.38
2022-11-05T11:06:09.313Z,15.38
2022-11-05T11:07:09.275Z,15.54
2022-11-05T11:08:09.292Z,15.84
2022-11-05T11:09:09.424Z,16.12
2022-11-05T11:10:12.216Z,16.33
2022-11-05T11:11:09.399Z,16.44
2022-11-05T11:12:09.384Z,16.59
2022-11-05T11:13:09.486Z,16.8
2022-11-05T11:14:09.281Z,16.98
2022-11-05T11:15:09.324Z,16.84
2022-11-05T11:16:09.349Z,16.45
2022-11-05T11:17:09.289Z,16.36
2022-11-05T11:18:09.326Z,16.21
2022-11-05T11:19:09.242Z,16.13
2022-11-05T11:20:09.329Z,16.01
2022-11-05T11:21:12.213Z,15.98
2022-11-05T11:22:09.267Z,16.09
2022-11-05T11:23:09.482Z,16.07
2022-11-05T11:24:09.184Z,15.91
2022-11-05T11:25:09.271Z,16.01
2022-11-05T11:26:09.191Z,16.22
2022-11-05T11:27:46.307Z,16.64
2022-11-05T11:28:46.227Z,16.66
2022-11-05T11:29:49.375Z,16.76
2022-11-05T11:30:46.691Z,16.99
2022-11-05T11:31:46.457Z,17.15
2022-11-05T11:32:49.448Z,17.34
2022-11-05T11:33:46.342Z,17.42
2022-11-05T11:34:46.821Z,17.52
2022-11-05T11:35:46.445Z,17.66
2022-11-05T11:36:46.318Z,17.98
2022-11-05T11:37:46.391Z,18.23
2022-11-05T11:38:46.365Z,18.79
2022-11-05T11:39:46.332Z,19.26
2022-11-05T11:40:46.676Z,19.77
2022-11-05T11:41:46.330Z,20.04
2022-11-05T11:42:47.190Z,20.09
2022-11-05T11:43:49.382Z,19.83
2022-11-05T11:44:46.317Z,19.19
2022-11-05T11:45:46.260Z,18.29
2022-11-05T11:46:46.247Z,17.7
2022-11-05T11:47:46.240Z,17.28
2022-11-05T11:48:46.278Z,17
2022-11-05T11:49:46.341Z,16.8
2022-11-05T11:50:46.333Z,16.62
2022-11-05T11:51:49.977Z,16.55
2022-11-05T11:52:46.371Z,16.42
2022-11-05T11:53:46.328Z,16.32
2022-11-05T11:54:49.276Z,16.24
2022-11-05T11:55:46.734Z,16.16
2022-11-05T11:56:46.449Z,15.98
2022-11-05T11:57:46.418Z,15.9
2022-11-05T11:58:46.333Z,15.89
2022-11-05T12:00:07.690Z,15.91
2022-11-05T12:00:46.347Z,15.93
2022-11-05T12:01:46.761Z,15.85
2022-11-05T12:02:46.443Z,15.74
2022-11-05T12:03:46.357Z,15.66
2022-11-05T12:04:46.313Z,15.59
2022-11-05T12:05:52.310Z,15.61
2022-11-05T12:06:46.331Z,15.62
2022-11-05T12:07:46.320Z,15.61
2022-11-05T12:08:49.379Z,15.59
2022-11-05T12:09:46.253Z,15.54
2022-11-05T12:10:46.356Z,15.57
2022-11-05T12:11:46.331Z,15.25
2022-11-05T12:12:46.444Z,15.14
2022-11-05T12:13:46.445Z,14.99
2022-11-05T12:14:46.769Z,14.81
2022-11-05T12:15:46.389Z,14.73
2022-11-05T12:16:49.407Z,14.61
2022-11-05T12:17:46.411Z,14.37
2022-11-05T12:18:46.366Z,14.16
2022-11-05T12:19:46.472Z,14.02
2022-11-05T12:20:48.284Z,13.89
2022-11-05T12:21:53.007Z,13.75
2022-11-05T12:22:46.329Z,13.64
2022-11-05T12:23:46.325Z,13.68
2022-11-05T12:24:46.278Z,13.77
2022-11-05T12:25:46.256Z,13.94
2022-11-05T12:26:46.252Z,13.97
2022-11-05T12:27:49.399Z,13.79
2022-11-05T12:29:12.236Z,13.69
2022-11-05T12:29:46.232Z,13.68
2022-11-05T12:30:46.282Z,13.83
2022-11-05T12:31:46.251Z,14
2022-11-05T12:32:46.330Z,14.18
2022-11-05T12:33:46.257Z,14.46
2022-11-05T12:34:46.241Z,14.77
2022-11-05T12:35:48.845Z,15.06
2022-11-05T12:36:46.457Z,15.18
2022-11-05T12:37:46.426Z,15.23
2022-11-05T12:38:50.494Z,15.28
2022-11-05T12:39:46.358Z,15.36
2022-11-05T12:40:46.396Z,15.42
2022-11-05T12:41:46.300Z,15.46
2022-11-05T12:42:46.352Z,15.47
2022-11-05T12:43:46.261Z,15.53
2022-11-05T12:44:46.375Z,15.53
2022-11-05T12:45:46.383Z,15.56
2022-11-05T12:46:46.469Z,15.62
2022-11-05T12:47:46.413Z,15.65
2022-11-05T12:48:46.447Z,15.58
2022-11-05T12:49:49.410Z,15.41
2022-11-05T12:50:46.341Z,15.25
2022-11-05T12:51:46.468Z,15.12
2022-11-05T12:52:46.430Z,15.09
2022-11-05T12:53:46.336Z,15.12
2022-11-05T12:54:46.357Z,15.2
2022-11-05T12:55:48.712Z,15.33
2022-11-05T12:56:46.254Z,15.42
2022-11-05T12:57:46.239Z,15.43
2022-11-05T12:58:46.264Z,15.48
2022-11-05T12:59:46.244Z,15.6
2022-11-05T13:00:49.313Z,15.67
2022-11-05T13:01:46.800Z,15.65
2022-11-05T13:02:46.314Z,15.59